La Tontouta, New Caledonia

6:01 PM NCT on October 26, 2014 (GMT +1100)
La Tontouta | Change Station
CLOSE
Current Station
Airport
Location: La Tontouta,
Elevation: 52 ft
Nearby Weather Stations

Elev 52 ft 22.02 °S, 166.22 °E | Updated 31 minutes ago

Mostly Cloudy
Mostly Cloudy
75 °F
Feels Like 75 °F
N
6
Wind Variable Wind from NNE

Today
High -- | Low -- °F
--% Chance of Precip.
Yesterday
High -- | Low -- °F
Precip. -- in
5:15 AM 6:03 PM
Waxing Crescent, 6% visible
Pressure 29.98 in
Visibility 6.2 miles
Clouds Few 4800 ft
Mostly Cloudy 5400 ft
Mostly Cloudy 7000 ft
Dew Point 57 °F
Humidity 53%
Rainfall 0.00 in
Snow Depth Not available.
UV 0 out of 12
Pollen Not available.
Air Quality Not available.
Flu Activity Not available.
METAR NWWW 260630Z AUTO 02005KT 350V070 9999 FEW048 BKN054 BKN070 24/14 Q1015

More Conditions Fewer Conditions

Pressure 29.98 in
Visibility 6.2 miles
Clouds Few 4800 ft
Mostly Cloudy 5400 ft
Mostly Cloudy 7000 ft
Dew Point 57 °F
Humidity 53%
Rainfall 0.00 in
Snow Depth Not available.
UV 0 out of 12
Pollen Not available.
Air Quality Not available.
Flu Activity Not available.
METAR NWWW 260630Z AUTO 02005KT 350V070 9999 FEW048 BKN054 BKN070 24/14 Q1015

More Conditions Fewer Conditions

10-Day Weather Forecast

Almanac

Astronomy

Oct. 26, 2014 Rise Set
Actual Time 5:15 AM NCT 6:03 PM NCT
Civil Twilight 4:52 AM NCT 6:26 PM NCT
Nautical Twilight 4:25 AM NCT 6:53 PM NCT
Astronomical Twilight 3:57 AM NCT 7:21 PM NCT
Moon 6:46 AM NCT 8:08 PM NCT
Length of Visible Light 13h 34m
Length of Day
12h 47m
Tomorrow will be 1m 12s longer.
Waxing Crescent, 6% of the Moon is Illuminated
Today
Waxing Crescent
Oct 30
First Quarter
Nov 6
Full
Nov 14
Last Quarter
Nov 22
New

Yesterday's Extremes

Country Highs Country Lows

Community

WunderPhotos

Upload Photos

1,765,115 photos uploaded!

Nearby

Snow Depth

Not available.

Earthquake Activity

City Distance Mag. Time & Date
No recent earthquake activity has been reported nearby.
Minimum magnitude displayed is 2.5.

Coastal Water Temperatures

Place Temperature
No Stations Reporting

Nearby Weather Stations